Time;durP1;ratioP1;P1;durP2;ratioP2;P2;SDS_P1;SDS_P2;PMS_P1;PMS_P2;Temp;Humidity;BMP_temperature;BMP_pressure;BME280_temperature;BME280_humidity;BME280_pressure;Samples;Min_cycle;Max_cycle;Signal;HPM_P1;HPM_P2
2023/09/17 00:07:48;;;;;;;11.82;8.40;;;;;;;16.00;71.35;100271.28;30852624;28;97369;-66
2023/09/17 00:22:48;;;;;;;11.48;9.27;;;;;;;15.72;71.93;100256.91;30849737;28;96752;-63
2023/09/17 00:37:51;;;;;;;11.98;9.80;;;;;;;15.48;72.69;100252.91;30847435;28;97157;-66
2023/09/17 00:52:51;;;;;;;13.13;10.03;;;;;;;15.33;73.36;100244.19;30846451;28;97573;-64
2023/09/17 01:07:53;;;;;;;12.77;9.45;;;;;;;15.28;74.10;100235.91;30845972;28;97015;-65
2023/09/17 01:22:59;;;;;;;16.60;10.47;;;;;;;15.20;74.18;100235.06;30844318;28;97147;-67
2023/09/17 01:38:03;;;;;;;14.37;10.97;;;;;;;15.09;74.55;100224.91;30843724;28;96683;-65
2023/09/17 01:53:04;;;;;;;14.97;10.10;;;;;;;15.02;74.96;100224.00;30841763;28;97634;-67
2023/09/17 02:08:04;;;;;;;16.30;10.25;;;;;;;14.86;75.43;100217.13;30840350;28;97264;-66
2023/09/17 02:23:06;;;;;;;14.02;10.43;;;;;;;14.78;76.14;100210.06;30839302;28;97399;-64
2023/09/17 02:38:06;;;;;;;12.93;10.03;;;;;;;14.71;76.24;100198.47;30837885;28;96721;-66
2023/09/17 02:53:07;;;;;;;12.65;10.27;;;;;;;14.62;76.57;100197.75;30841759;28;97464;-67
2023/09/17 03:08:09;;;;;;;14.13;10.63;;;;;;;14.55;76.81;100200.41;30857841;28;96828;-63
2023/09/17 03:23:09;;;;;;;12.57;10.27;;;;;;;14.47;76.75;100202.41;30857937;28;96630;-64
2023/09/17 03:38:09;;;;;;;14.88;11.13;;;;;;;14.31;77.21;100198.16;30854517;28;97388;-64
2023/09/17 03:53:10;;;;;;;15.55;11.40;;;;;;;14.20;77.67;100194.16;30851567;28;98017;-67
2023/09/17 04:08:10;;;;;;;17.52;11.10;;;;;;;14.07;78.10;100181.50;30850127;28;97381;-67
2023/09/17 04:23:11;;;;;;;17.58;12.30;;;;;;;14.03;78.59;100191.75;30848914;28;97057;-65
2023/09/17 04:38:11;;;;;;;14.43;11.23;;;;;;;14.04;78.71;100200.66;30846661;28;97044;-72
2023/09/17 04:53:11;;;;;;;21.70;11.50;;;;;;;14.15;78.51;100210.81;30844062;28;96935;-68
2023/09/17 05:08:14;;;;;;;14.75;10.88;;;;;;;14.40;78.82;100231.84;30843304;28;96740;-67
2023/09/17 05:23:16;;;;;;;11.80;9.23;;;;;;;14.85;78.51;100243.09;30841773;28;97252;-64
2023/09/17 05:38:16;;;;;;;10.50;9.13;;;;;;;15.51;78.37;100249.84;30841756;28;96833;-66
2023/09/17 05:53:16;;;;;;;13.95;9.85;;;;;;;16.11;77.30;100257.22;30839326;28;97316;-64
2023/09/17 06:08:17;;;;;;;11.68;8.55;;;;;;;16.85;76.39;100274.19;30838171;28;96808;-66
2023/09/17 06:23:17;;;;;;;9.60;7.32;;;;;;;17.43;75.85;100265.31;30835937;28;97206;-63
2023/09/17 06:38:18;;;;;;;9.45;6.03;;;;;;;18.51;74.34;100259.31;30835869;28;97238;-67
2023/09/17 06:53:18;;;;;;;7.57;5.30;;;;;;;19.74;72.60;100283.72;30833491;28;96819;-68
2023/09/17 07:08:19;;;;;;;5.30;4.20;;;;;;;20.60;70.83;100280.78;30833258;28;96664;-70
2023/09/17 07:23:19;;;;;;;5.60;3.67;;;;;;;21.77;66.97;100272.72;30834526;28;96734;-72
2023/09/17 07:38:20;;;;;;;10.00;6.10;;;;;;;22.80;64.57;100285.31;30837289;28;96900;-68
2023/09/17 07:53:20;;;;;;;6.23;3.53;;;;;;;23.87;60.51;100282.28;30849600;28;96738;-68
2023/09/17 08:08:20;;;;;;;;;;;;;;;24.85;56.96;100288.59;30849675;28;97346;-70
2023/09/17 08:23:22;;;;;;;4.87;2.80;;;;;;;26.38;53.52;100285.81;30848047;28;96827;-65
2023/09/17 08:38:22;;;;;;;5.00;3.00;;;;;;;28.14;47.37;100284.09;30845163;28;97099;-70
2023/09/17 08:53:28;;;;;;;3.33;2.25;;;;;;;35.23;34.18;100273.34;30842324;28;97177;-65
2023/09/17 09:08:30;;;;;;;4.07;2.40;;;;;;;40.75;25.87;100266.53;31057833;28;97420;-66
2023/09/17 09:23:31;;;;;;;3.03;1.97;;;;;;;-147.20;100.00;63046.97;31009302;28;97359;-65
2023/09/17 09:38:32;;;;;;;2.83;1.60;;;;;;;-147.20;100.00;63046.97;31413416;28;20057;-68
2023/09/17 09:53:33;;;;;;;4.23;1.63;;;;;;;-147.20;100.00;63046.97;31411696;28;20050;-66
2023/09/17 10:08:38;;;;;;;2.05;1.70;;;;;;;-147.20;100.00;63046.97;31411676;28;20521;-66
2023/09/17 10:23:39;;;;;;;2.40;1.50;;;;;;;-147.20;100.00;63046.97;31412243;28;20025;-65
2023/09/17 10:38:41;;;;;;;2.78;1.45;;;;;;;-147.20;100.00;63046.97;31409632;28;20036;-64
2023/09/17 10:53:41;;;;;;;3.00;1.37;;;;;;;-147.20;100.00;63046.97;31408402;28;20079;-64
2023/09/17 11:08:46;;;;;;;1.45;1.35;;;;;;;-147.20;100.00;63046.97;31405601;28;20109;-66
2023/09/17 11:23:47;;;;;;;4.73;1.67;;;;;;;-147.20;100.00;63046.97;31423443;28;20490;-64
2023/09/17 11:38:48;;;;;;;3.53;1.20;;;;;;;-147.20;100.00;63046.97;31425620;28;20060;-65
2023/09/17 11:54:02;;;;;;;2.00;1.25;;;;;;;-147.20;100.00;63046.97;31424332;28;20893;-64
2023/09/17 12:25:19;;;;;;;3.80;1.50;;;;;;;-147.20;100.00;63046.97;31422085;28;20044;-64
2023/09/17 12:40:21;;;;;;;1.60;1.20;;;;;;;-147.20;100.00;63046.97;31419755;28;20033;-65
2023/09/17 12:55:22;;;;;;;1.57;1.47;;;;;;;-147.20;100.00;63046.97;31416082;28;20045;-69
2023/09/17 13:10:22;;;;;;;2.20;1.35;;;;;;;-147.20;100.00;63046.97;31446958;28;20029;-64
2023/09/17 13:25:23;;;;;;;4.38;2.20;;;;;;;-147.20;100.00;63046.97;31541560;28;20074;-64
2023/09/17 13:40:24;;;;;;;2.60;1.97;;;;;;;-147.20;100.00;63046.97;31540139;28;20094;-68
2023/09/17 13:55:28;;;;;;;3.50;2.05;;;;;;;-147.20;100.00;63046.97;31538030;28;20724;-74
2023/09/17 14:10:29;;;;;;;2.63;1.70;;;;;;;-147.20;100.00;63046.97;31535928;28;20386;-63
2023/09/17 14:25:30;;;;;;;3.50;1.80;;;;;;;-147.20;100.00;63046.97;31535493;28;20331;-67
2023/09/17 14:40:31;;;;;;;3.80;2.63;;;;;;;-147.20;100.00;63046.97;31534131;28;20337;-66
2023/09/17 14:55:31;;;;;;;2.92;1.80;;;;;;;-147.20;100.00;63046.97;31547494;28;20675;-69
2023/09/17 15:10:31;;;;;;;4.82;2.30;;;;;;;-147.20;100.00;63046.97;31554991;28;20054;-67
2023/09/17 15:25:32;;;;;;;2.65;1.85;;;;;;;-147.20;100.00;63046.97;31553989;28;20117;-65
2023/09/17 15:40:32;;;;;;;3.97;2.20;;;;;;;-147.20;100.00;63046.97;31551622;28;20936;-65
2023/09/17 15:55:33;;;;;;;4.65;2.50;;;;;;;-147.20;100.00;63046.97;31549787;28;20621;-66
2023/09/17 16:10:33;;;;;;;3.90;2.40;;;;;;;-147.20;100.00;63046.97;31546461;28;23873;-64
2023/09/17 16:25:33;;;;;;;3.30;1.83;;;;;;;-147.20;100.00;63046.97;31547959;28;20362;-63
2023/09/17 16:40:34;;;;;;;3.70;2.83;;;;;;;-147.20;100.00;63046.97;31546448;28;20033;-62
2023/09/17 16:55:35;;;;;;;5.50;3.20;;;;;;;-147.20;100.00;63046.97;31543791;28;20053;-71
2023/09/17 17:10:36;;;;;;;12.05;5.55;;;;;;;-147.20;100.00;63046.97;31542566;28;20469;-72
2023/09/17 17:25:36;;;;;;;20.35;9.93;;;;;;;-147.20;100.00;63046.97;31541191;28;20121;-67
2023/09/17 17:40:36;;;;;;;8.07;5.45;;;;;;;-147.20;100.00;63046.97;31539901;28;20041;-70
2023/09/17 17:55:40;;;;;;;7.97;5.47;;;;;;;-147.20;100.00;63046.97;31538237;28;20045;-69
2023/09/17 18:10:40;;;;;;;7.35;5.13;;;;;;;-147.20;100.00;63046.97;31535966;28;20029;-73
2023/09/17 18:25:41;;;;;;;6.63;5.03;;;;;;;-147.20;100.00;63046.97;31534526;28;20374;-67
2023/09/17 18:40:42;;;;;;;7.75;4.68;;;;;;;-147.20;100.00;63046.97;31532751;28;20117;-69
2023/09/17 18:55:42;;;;;;;10.57;6.13;;;;;;;-147.20;100.00;63046.97;31532221;28;20036;-63
2023/09/17 19:10:43;;;;;;;10.80;6.75;;;;;;;-147.20;100.00;63046.97;31532970;28;20033;-63
2023/09/17 19:25:43;;;;;;;7.75;5.13;;;;;;;-147.20;100.00;63046.97;31532771;28;20028;-67
2023/09/17 19:40:44;;;;;;;7.50;5.65;;;;;;;-147.20;100.00;63046.97;31544178;28;20116;-69
2023/09/17 19:55:46;;;;;;;8.63;5.43;;;;;;;-147.20;100.00;63046.97;31550923;28;20053;-63
2023/09/17 20:10:46;;;;;;;6.97;5.60;;;;;;;-147.20;100.00;63046.97;31548032;28;20465;-65
2023/09/17 20:25:47;;;;;;;9.02;5.97;;;;;;;-147.20;100.00;63046.97;31545781;28;20037;-68
2023/09/17 20:40:48;;;;;;;10.43;6.60;;;;;;;-147.20;100.00;63046.97;31545898;28;20044;-68
2023/09/17 20:55:51;;;;;;;8.65;5.95;;;;;;;-147.20;100.00;63046.97;31543596;28;20099;-65
2023/09/17 21:10:51;;;;;;;8.60;6.15;;;;;;;-147.20;100.00;63046.97;31544465;28;20032;-73
2023/09/17 21:25:51;;;;;;;9.05;6.90;;;;;;;-147.20;100.00;63046.97;31544309;28;20031;-71
2023/09/17 21:40:52;;;;;;;7.93;6.50;;;;;;;-147.20;100.00;63046.97;31541692;28;20033;-73
2023/09/17 21:55:53;;;;;;;7.93;6.53;;;;;;;-147.20;100.00;63046.97;31540290;28;20076;-71
2023/09/17 22:10:54;;;;;;;7.80;7.00;;;;;;;-147.20;100.00;63046.97;31540513;28;20373;-68
2023/09/17 22:25:54;;;;;;;7.57;6.60;;;;;;;-147.20;100.00;63046.97;31539135;28;20336;-75
2023/09/17 22:40:56;;;;;;;7.30;6.20;;;;;;;-147.20;100.00;63046.97;31538137;28;20033;-73
2023/09/17 22:55:56;;;;;;;7.33;6.33;;;;;;;-147.20;100.00;63046.97;31536851;28;20045;-64
2023/09/17 23:10:58;;;;;;;8.57;6.20;;;;;;;-147.20;100.00;63046.97;31543505;28;20114;-69
2023/09/17 23:26:00;;;;;;;8.07;6.37;;;;;;;-147.20;100.00;63046.97;31557234;28;20029;-72
2023/09/17 23:41:05;;;;;;;;;;;;;;;-147.20;100.00;63046.97;31556247;28;20897;-69
2023/09/17 23:56:05;;;;;;;9.45;6.85;;;;;;;-147.20;100.00;63046.97;31554356;28;20017;-68
